createdAt,value
2023-04-15T00:01:25.173Z,4.30
2023-04-15T00:03:58.509Z,4.60
2023-04-15T00:06:31.600Z,4.70
2023-04-15T00:09:05.428Z,4.90
2023-04-15T00:11:38.471Z,5.70
2023-04-15T00:14:13.505Z,5.30
2023-04-15T00:16:55.889Z,4.70
2023-04-15T00:19:29.321Z,4.80
2023-04-15T00:22:04.345Z,4.50
2023-04-15T00:24:38.368Z,5.00
2023-04-15T00:27:11.757Z,5.60
2023-04-15T00:29:44.875Z,5.00
2023-04-15T00:32:18.167Z,4.40
2023-04-15T00:34:51.416Z,4.70
2023-04-15T00:37:24.799Z,4.80
2023-04-15T00:39:58.227Z,4.90
2023-04-15T00:42:30.980Z,4.90
2023-04-15T00:45:05.869Z,4.50
2023-04-15T00:47:38.624Z,4.40
2023-04-15T00:50:13.162Z,4.70
2023-04-15T00:52:46.081Z,4.50
2023-04-15T00:55:19.504Z,4.50
2023-04-15T00:58:12.423Z,4.70
2023-04-15T01:00:48.143Z,5.30
2023-04-15T01:03:21.908Z,5.20
2023-04-15T01:05:58.854Z,4.60
2023-04-15T01:08:31.937Z,4.30
2023-04-15T01:11:05.198Z,5.20
2023-04-15T01:13:38.664Z,4.90
2023-04-15T01:16:12.372Z,4.90
2023-04-15T01:18:45.210Z,5.10
2023-04-15T01:21:18.413Z,5.90
2023-04-15T01:23:52.561Z,5.50
2023-04-15T01:26:27.710Z,5.60
2023-04-15T01:29:00.578Z,5.50
2023-04-15T01:31:34.799Z,6.00
2023-04-15T01:34:08.545Z,5.80
2023-04-15T01:36:41.383Z,5.70
2023-04-15T01:39:15.214Z,5.40
2023-04-15T01:41:48.355Z,5.70
2023-04-15T01:44:23.002Z,5.70
2023-04-15T01:46:56.170Z,6.50
2023-04-15T01:49:30.108Z,5.90
2023-04-15T01:52:02.794Z,6.00
2023-04-15T01:54:35.914Z,6.40
2023-04-15T01:57:09.636Z,6.80
2023-04-15T01:59:43.831Z,6.10
2023-04-15T02:02:16.714Z,6.60
2023-04-15T02:04:49.994Z,5.40
2023-04-15T02:07:22.943Z,5.70
2023-04-15T02:09:56.192Z,5.90
2023-04-15T02:12:29.153Z,6.00
2023-04-15T02:15:01.911Z,6.20
2023-04-15T02:17:46.213Z,7.90
2023-04-15T02:20:22.757Z,6.10
2023-04-15T02:22:56.966Z,6.50
2023-04-15T02:25:29.816Z,7.60
2023-04-15T02:28:03.034Z,7.60
2023-04-15T02:30:35.939Z,7.00
2023-04-15T02:33:09.510Z,7.10
2023-04-15T02:35:44.657Z,7.70
2023-04-15T02:38:18.286Z,7.10
2023-04-15T02:40:53.848Z,7.30
2023-04-15T02:43:27.450Z,7.30
2023-04-15T02:46:00.529Z,6.70
2023-04-15T02:48:38.972Z,7.70
2023-04-15T02:51:22.220Z,8.30
2023-04-15T02:53:55.305Z,7.70
2023-04-15T02:56:28.305Z,7.00
2023-04-15T02:59:02.742Z,6.70
2023-04-15T03:01:35.929Z,7.50
2023-04-15T03:04:10.119Z,7.50
2023-04-15T03:06:47.162Z,7.60
2023-04-15T03:09:20.391Z,6.50
2023-04-15T03:11:54.998Z,6.60
2023-04-15T03:14:31.795Z,6.20
2023-04-15T03:17:07.576Z,6.70
2023-04-15T03:19:40.748Z,6.40
2023-04-15T03:22:14.312Z,5.50
2023-04-15T03:24:48.174Z,5.80
2023-04-15T03:27:21.095Z,5.90
2023-04-15T03:29:57.358Z,5.90
2023-04-15T03:32:31.944Z,5.00
2023-04-15T03:35:05.124Z,5.40
2023-04-15T03:37:40.153Z,5.80
2023-04-15T03:40:14.453Z,5.70
2023-04-15T03:42:47.216Z,5.50
2023-04-15T03:45:20.804Z,5.00
2023-04-15T03:47:53.908Z,5.00
2023-04-15T03:50:26.904Z,5.20
2023-04-15T03:52:59.931Z,5.50
2023-04-15T03:55:32.759Z,5.30
2023-04-15T03:58:06.703Z,6.20
2023-04-15T04:00:39.472Z,4.80
2023-04-15T04:03:12.956Z,4.20
2023-04-15T04:05:51.524Z,4.70
2023-04-15T04:08:25.847Z,4.60
2023-04-15T04:10:58.852Z,6.10
2023-04-15T04:13:35.743Z,4.00
2023-04-15T04:16:09.651Z,5.20
2023-04-15T04:18:44.140Z,4.90
2023-04-15T04:21:16.962Z,4.90
2023-04-15T04:23:53.327Z,5.90
2023-04-15T04:26:26.211Z,5.40
2023-04-15T04:28:59.544Z,5.20
2023-04-15T04:31:33.808Z,4.40
2023-04-15T04:34:08.308Z,5.10
2023-04-15T04:36:41.825Z,5.50
2023-04-15T04:39:15.389Z,5.20
2023-04-15T04:41:48.041Z,4.60
2023-04-15T04:44:21.111Z,5.80
2023-04-15T04:46:54.168Z,5.90
2023-04-15T04:49:27.746Z,4.90
2023-04-15T04:52:03.484Z,4.70
2023-04-15T04:54:36.621Z,4.90
2023-04-15T04:57:09.350Z,4.90
2023-04-15T04:59:46.206Z,5.10
2023-04-15T05:02:19.818Z,6.40
2023-04-15T05:04:54.684Z,6.70
2023-04-15T05:07:31.402Z,5.40
2023-04-15T05:10:05.182Z,7.50
2023-04-15T05:12:38.979Z,6.60
2023-04-15T05:15:14.522Z,7.10
2023-04-15T05:17:47.747Z,7.10
2023-04-15T05:20:20.931Z,7.60
2023-04-15T05:22:54.700Z,6.80
2023-04-15T05:25:28.311Z,9.80
2023-04-15T05:28:01.724Z,7.30
2023-04-15T05:30:34.897Z,6.90
2023-04-15T05:33:14.935Z,7.40
2023-04-15T05:35:48.068Z,5.50
2023-04-15T05:38:21.066Z,5.90
2023-04-15T05:40:53.998Z,5.60
2023-04-15T05:43:28.798Z,6.20
2023-04-15T05:46:03.692Z,5.50
2023-04-15T05:48:37.381Z,5.40
2023-04-15T05:51:10.835Z,6.40
2023-04-15T05:53:43.864Z,7.20
2023-04-15T05:56:16.898Z,11.50
2023-04-15T05:58:52.442Z,13.30
2023-04-15T06:01:29.268Z,15.80
2023-04-15T06:04:02.375Z,8.40
2023-04-15T06:06:35.539Z,6.90
2023-04-15T06:09:08.588Z,6.10
2023-04-15T06:14:21.491Z,7.10
2023-04-15T06:16:54.652Z,5.90
2023-04-15T06:19:28.620Z,11.60
2023-04-15T06:22:01.375Z,11.00
2023-04-15T06:24:34.408Z,6.40
2023-04-15T06:27:07.379Z,7.00
2023-04-15T06:29:40.138Z,10.20
2023-04-15T06:32:13.300Z,11.80
2023-04-15T06:34:47.002Z,27.40
2023-04-15T06:37:19.889Z,10.40
2023-04-15T06:39:53.052Z,12.70
2023-04-15T06:42:25.928Z,26.40
2023-04-15T06:44:59.862Z,31.20
2023-04-15T06:47:32.971Z,40.50
2023-04-15T06:50:07.046Z,29.70
2023-04-15T06:52:39.965Z,25.60
2023-04-15T06:55:12.980Z,26.50
2023-04-15T06:57:46.692Z,18.40
2023-04-15T07:00:23.406Z,15.80
2023-04-15T07:02:57.986Z,6.80
2023-04-15T07:05:31.281Z,8.90
2023-04-15T07:08:04.228Z,5.40
2023-04-15T07:10:38.426Z,4.20
2023-04-15T07:13:11.598Z,4.40
2023-04-15T07:15:44.476Z,5.70
2023-04-15T07:18:18.658Z,6.00
2023-04-15T07:20:51.980Z,5.10
2023-04-15T07:23:25.578Z,4.90
2023-04-15T07:25:59.723Z,6.00
2023-04-15T07:28:33.402Z,6.50
2023-04-15T07:31:06.108Z,5.10
2023-04-15T07:33:44.846Z,5.60
2023-04-15T07:36:19.189Z,9.90
2023-04-15T07:38:52.316Z,7.30
2023-04-15T07:41:26.336Z,6.10
2023-04-15T07:44:00.817Z,7.50
2023-04-15T07:46:34.129Z,10.80
2023-04-15T07:49:08.957Z,6.80
2023-04-15T07:51:41.854Z,7.50
2023-04-15T07:54:15.471Z,6.00
2023-04-15T07:57:00.539Z,6.40
2023-04-15T07:59:33.813Z,6.90
2023-04-15T08:02:07.048Z,8.20
2023-04-15T08:04:40.045Z,7.90
2023-04-15T08:07:13.053Z,10.30
2023-04-15T08:09:46.485Z,7.70
2023-04-15T08:12:19.624Z,7.90
2023-04-15T08:14:54.615Z,10.50
2023-04-15T08:17:27.430Z,20.40
2023-04-15T08:20:02.862Z,17.90
2023-04-15T08:22:36.643Z,9.70
2023-04-15T08:25:11.947Z,9.40
2023-04-15T08:27:47.310Z,11.80
2023-04-15T08:30:21.932Z,7.60
2023-04-15T08:32:54.946Z,7.80
2023-04-15T08:35:30.892Z,7.20
2023-04-15T08:38:03.695Z,6.00
2023-04-15T08:40:41.899Z,6.80
2023-04-15T08:43:20.875Z,6.60
2023-04-15T08:45:53.673Z,6.40
2023-04-15T08:48:28.833Z,7.10
2023-04-15T08:51:01.518Z,7.00
2023-04-15T08:53:35.760Z,8.70
2023-04-15T08:56:10.322Z,7.00
2023-04-15T08:58:43.736Z,7.20
2023-04-15T09:01:17.252Z,7.40
2023-04-15T09:03:50.658Z,7.10
2023-04-15T09:06:24.198Z,7.30
2023-04-15T09:08:57.887Z,5.80
2023-04-15T09:11:31.013Z,6.20
2023-04-15T09:14:03.992Z,6.90
2023-04-15T09:16:51.052Z,10.10
2023-04-15T09:19:28.221Z,13.00
2023-04-15T09:22:02.131Z,10.40
2023-04-15T09:24:39.781Z,9.20
2023-04-15T09:27:12.539Z,9.70
2023-04-15T09:29:45.836Z,6.80
2023-04-15T09:32:18.777Z,6.20
2023-04-15T09:34:51.949Z,6.50
2023-04-15T09:37:32.716Z,9.10
2023-04-15T09:40:10.330Z,8.50
2023-04-15T09:43:02.175Z,7.40
2023-04-15T09:45:34.924Z,6.70
2023-04-15T09:48:21.060Z,7.70
2023-04-15T09:50:54.341Z,7.90
2023-04-15T09:53:29.842Z,8.40
2023-04-15T09:56:04.529Z,8.80
2023-04-15T09:58:39.610Z,8.30
2023-04-15T10:01:12.443Z,9.80
2023-04-15T10:03:45.448Z,7.80
2023-04-15T10:06:19.636Z,5.30
2023-04-15T10:08:52.505Z,6.20
2023-04-15T10:11:25.477Z,7.50
2023-04-15T10:13:59.243Z,9.00
2023-04-15T10:16:32.650Z,9.70
2023-04-15T10:19:07.420Z,8.80
2023-04-15T10:21:40.751Z,10.70
2023-04-15T10:24:14.524Z,9.90
2023-04-15T10:26:47.632Z,8.10
2023-04-15T10:29:20.715Z,9.50
2023-04-15T10:31:53.482Z,7.50
2023-04-15T10:34:26.305Z,7.20
2023-04-15T10:37:01.777Z,7.90
2023-04-15T10:39:44.857Z,9.90
2023-04-15T10:42:19.386Z,9.60
2023-04-15T10:44:54.506Z,12.90
2023-04-15T10:47:27.669Z,11.10
2023-04-15T10:50:04.001Z,11.40
2023-04-15T10:52:37.074Z,9.60
2023-04-15T10:55:16.722Z,8.00
2023-04-15T10:57:52.956Z,7.90
2023-04-15T11:00:30.216Z,12.10
2023-04-15T11:03:07.796Z,7.70
2023-04-15T11:05:53.774Z,7.60
2023-04-15T11:09:06.451Z,8.50
2023-04-15T11:12:10.000Z,6.70
2023-04-15T11:14:44.577Z,7.00
2023-04-15T11:17:18.397Z,7.60
2023-04-15T11:19:53.006Z,18.70
2023-04-15T11:22:26.148Z,14.10
2023-04-15T11:24:59.059Z,8.30
2023-04-15T11:27:34.243Z,7.60
2023-04-15T11:30:20.460Z,11.60
2023-04-15T11:32:54.172Z,7.70
2023-04-15T11:35:27.290Z,8.40
2023-04-15T11:38:01.445Z,13.90
2023-04-15T11:40:35.741Z,21.50
2023-04-15T11:43:09.755Z,21.40
2023-04-15T11:45:53.024Z,8.70
2023-04-15T11:48:27.247Z,10.70
2023-04-15T11:51:00.560Z,8.20
2023-04-15T11:53:43.436Z,15.70
2023-04-15T11:56:21.628Z,15.10
2023-04-15T11:58:57.406Z,19.80
2023-04-15T12:01:36.235Z,20.20
2023-04-15T12:04:16.851Z,17.10
2023-04-15T12:06:50.166Z,11.40
2023-04-15T12:09:24.292Z,9.00
2023-04-15T12:12:00.691Z,9.00
2023-04-15T12:14:34.507Z,9.90
2023-04-15T12:17:08.229Z,14.60
2023-04-15T12:19:42.059Z,32.80
2023-04-15T12:22:15.984Z,13.20
2023-04-15T12:24:49.806Z,5.50
2023-04-15T12:27:22.649Z,6.00
2023-04-15T12:29:57.512Z,5.30
2023-04-15T12:32:30.995Z,4.40
2023-04-15T12:35:04.021Z,5.00
2023-04-15T12:37:37.236Z,3.80
2023-04-15T12:40:12.057Z,4.70
2023-04-15T12:42:45.043Z,5.40
2023-04-15T12:45:18.024Z,8.40
2023-04-15T12:47:51.776Z,21.40
2023-04-15T12:50:24.495Z,23.80
2023-04-15T12:52:57.218Z,27.50
2023-04-15T12:55:30.785Z,25.90
2023-04-15T12:58:03.893Z,18.10
2023-04-15T13:00:38.083Z,9.50
2023-04-15T13:03:11.138Z,16.60
2023-04-15T13:05:45.034Z,20.10
2023-04-15T13:08:17.923Z,16.80
2023-04-15T13:10:50.886Z,10.40
2023-04-15T13:13:23.747Z,10.80
2023-04-15T13:15:56.626Z,7.00
2023-04-15T13:18:31.424Z,6.70
2023-04-15T13:21:05.418Z,5.90
2023-04-15T13:23:38.499Z,15.00
2023-04-15T13:26:11.651Z,9.40
2023-04-15T13:28:44.236Z,5.60
2023-04-15T13:31:17.409Z,6.30
2023-04-15T13:33:50.108Z,7.30
2023-04-15T13:36:23.812Z,28.70
2023-04-15T13:38:57.964Z,16.00
2023-04-15T13:41:30.812Z,13.80
2023-04-15T13:44:03.850Z,11.50
2023-04-15T13:46:38.093Z,6.80
2023-04-15T13:49:11.086Z,9.10
2023-04-15T13:51:44.245Z,15.40
2023-04-15T13:54:17.152Z,11.80
2023-04-15T13:56:49.959Z,9.80
2023-04-15T13:59:22.802Z,8.20
2023-04-15T14:01:55.980Z,6.60
2023-04-15T14:04:30.184Z,7.70
2023-04-15T14:07:05.044Z,6.70
2023-04-15T14:09:43.428Z,14.20
2023-04-15T14:12:16.968Z,6.60
2023-04-15T14:14:50.060Z,6.10
2023-04-15T14:17:23.366Z,6.80
2023-04-15T14:19:56.034Z,18.70
2023-04-15T14:22:29.015Z,25.30
2023-04-15T14:25:02.080Z,33.30
2023-04-15T14:27:35.859Z,37.50
2023-04-15T14:30:11.025Z,12.00
2023-04-15T14:32:44.621Z,6.40
2023-04-15T14:35:17.390Z,5.00
2023-04-15T14:37:50.047Z,5.20
2023-04-15T14:40:23.113Z,5.30
2023-04-15T14:42:55.952Z,4.50
2023-04-15T14:45:28.838Z,4.30
2023-04-15T14:48:01.861Z,3.70
2023-04-15T14:50:34.928Z,4.50
2023-04-15T14:53:07.741Z,3.90
2023-04-15T14:55:42.866Z,4.10
2023-04-15T14:58:16.710Z,4.40
2023-04-15T15:00:49.870Z,5.10
2023-04-15T15:03:23.258Z,4.30
2023-04-15T15:05:56.071Z,4.70
2023-04-15T15:08:30.140Z,7.50
2023-04-15T15:11:02.902Z,8.80
2023-04-15T15:13:36.562Z,6.40
2023-04-15T15:16:12.441Z,4.90
2023-04-15T15:18:46.652Z,5.10
2023-04-15T15:21:19.671Z,5.10
2023-04-15T15:23:52.267Z,5.30
2023-04-15T15:26:25.199Z,6.00
2023-04-15T15:28:58.692Z,6.90
2023-04-15T15:31:31.495Z,5.80
2023-04-15T15:34:05.280Z,6.00
2023-04-15T15:36:38.554Z,5.70
2023-04-15T15:39:13.458Z,6.50
2023-04-15T15:41:46.285Z,6.30
2023-04-15T15:44:19.355Z,6.80
2023-04-15T15:46:53.190Z,6.90
2023-04-15T15:49:28.522Z,10.80
2023-04-15T15:52:01.834Z,10.50
2023-04-15T15:54:37.215Z,9.60
2023-04-15T15:57:10.418Z,9.60
2023-04-15T15:59:43.950Z,7.10
2023-04-15T16:02:18.308Z,6.80
2023-04-15T16:04:52.852Z,7.60
2023-04-15T16:07:25.650Z,8.00
2023-04-15T16:09:58.929Z,6.60
2023-04-15T16:12:33.842Z,10.60
2023-04-15T16:15:11.282Z,11.50
2023-04-15T16:17:44.406Z,11.20
2023-04-15T16:20:17.496Z,6.60
2023-04-15T16:22:50.613Z,10.00
2023-04-15T16:25:23.439Z,11.60
2023-04-15T16:28:05.476Z,12.30
2023-04-15T16:30:44.450Z,10.00
2023-04-15T16:33:17.192Z,25.50
2023-04-15T16:35:50.002Z,11.10
2023-04-15T16:38:23.328Z,9.00
2023-04-15T16:40:56.860Z,16.80
2023-04-15T16:43:30.071Z,8.30
2023-04-15T16:46:03.493Z,8.60
2023-04-15T16:48:36.645Z,8.40
2023-04-15T16:51:10.042Z,12.40
2023-04-15T16:53:43.039Z,8.20
2023-04-15T16:56:16.830Z,14.30
2023-04-15T16:58:49.635Z,8.90
2023-04-15T17:01:23.220Z,13.30
2023-04-15T17:03:56.561Z,9.50
2023-04-15T17:06:29.267Z,13.30
2023-04-15T17:09:02.537Z,9.50
2023-04-15T17:11:35.897Z,8.90
2023-04-15T17:14:08.481Z,10.00
2023-04-15T17:16:45.048Z,10.30
2023-04-15T17:19:17.943Z,8.30
2023-04-15T17:21:51.203Z,10.30
2023-04-15T17:24:24.890Z,10.90
2023-04-15T17:26:57.910Z,8.90
2023-04-15T17:29:30.541Z,12.70
2023-04-15T17:32:03.917Z,8.90
2023-04-15T17:34:49.897Z,10.20
2023-04-15T17:37:24.770Z,11.40
2023-04-15T17:39:57.639Z,12.20
2023-04-15T17:42:30.300Z,10.90
2023-04-15T17:45:03.116Z,9.50
2023-04-15T17:47:36.237Z,9.60
2023-04-15T17:50:11.326Z,10.50
2023-04-15T17:52:44.054Z,12.70
2023-04-15T17:55:17.066Z,12.40
2023-04-15T17:57:50.468Z,10.10
2023-04-15T18:00:23.179Z,13.60
2023-04-15T18:02:56.462Z,11.60
2023-04-15T18:05:30.185Z,14.40
2023-04-15T18:08:03.430Z,11.90
2023-04-15T18:10:37.744Z,9.50
2023-04-15T18:13:10.974Z,9.10
2023-04-15T18:15:45.618Z,9.00
2023-04-15T18:18:19.818Z,10.20
2023-04-15T18:20:52.854Z,8.70
2023-04-15T18:23:25.867Z,8.80
2023-04-15T18:25:59.346Z,8.60
2023-04-15T18:28:33.179Z,9.40
2023-04-15T18:31:06.349Z,9.00
2023-04-15T18:33:39.248Z,13.00
2023-04-15T18:36:12.649Z,16.60
2023-04-15T18:38:45.359Z,10.40
2023-04-15T18:41:17.967Z,10.70
2023-04-15T18:43:50.918Z,8.90
2023-04-15T18:46:23.653Z,15.50
2023-04-15T18:48:57.122Z,10.10
2023-04-15T18:51:30.106Z,14.50
2023-04-15T18:54:02.852Z,11.40
2023-04-15T18:56:36.426Z,9.40
2023-04-15T18:59:28.572Z,12.10
2023-04-15T19:02:03.841Z,9.10
2023-04-15T19:04:37.300Z,10.10
2023-04-15T19:07:10.339Z,11.90
2023-04-15T19:09:43.747Z,9.30
2023-04-15T19:12:16.748Z,9.70
2023-04-15T19:14:49.551Z,12.80
2023-04-15T19:17:22.321Z,8.90
2023-04-15T19:19:58.616Z,13.20
2023-04-15T19:22:32.124Z,12.10
2023-04-15T19:25:05.354Z,8.80
2023-04-15T19:27:38.566Z,7.80
2023-04-15T19:30:12.771Z,10.00
2023-04-15T19:32:46.368Z,11.40
2023-04-15T19:35:19.453Z,10.80
2023-04-15T19:37:52.521Z,9.50
2023-04-15T19:40:25.244Z,11.00
2023-04-15T19:42:59.744Z,10.10
2023-04-15T19:45:33.397Z,9.50
2023-04-15T19:48:07.687Z,11.00
2023-04-15T19:50:40.802Z,12.00
2023-04-15T19:53:15.513Z,10.00
2023-04-15T19:55:50.351Z,9.40
2023-04-15T19:58:25.123Z,10.10
2023-04-15T20:00:58.191Z,9.40
2023-04-15T20:03:31.496Z,10.60
2023-04-15T20:06:04.634Z,10.80
2023-04-15T20:08:38.837Z,12.80
2023-04-15T20:11:15.274Z,10.40
2023-04-15T20:13:50.051Z,9.70
2023-04-15T20:16:27.351Z,11.90
2023-04-15T20:19:09.436Z,12.00
2023-04-15T20:21:44.034Z,15.20
2023-04-15T20:24:19.195Z,14.20
2023-04-15T20:26:53.196Z,10.50
2023-04-15T20:29:28.235Z,12.20
2023-04-15T20:32:02.005Z,15.90
2023-04-15T20:34:37.348Z,22.80
2023-04-15T20:37:11.567Z,16.40
2023-04-15T20:39:46.424Z,17.10
2023-04-15T20:42:20.153Z,15.70
2023-04-15T20:44:53.571Z,13.80
2023-04-15T20:47:26.479Z,17.60
2023-04-15T20:49:59.361Z,16.40
2023-04-15T20:52:31.980Z,24.00
2023-04-15T20:55:05.014Z,14.10
2023-04-15T20:57:37.648Z,17.50
2023-04-15T21:00:13.378Z,16.40
2023-04-15T21:02:46.155Z,18.00
2023-04-15T21:05:18.959Z,14.30
2023-04-15T21:07:52.054Z,13.50
2023-04-15T21:10:25.483Z,19.50
2023-04-15T21:12:58.155Z,21.00
2023-04-15T21:15:31.059Z,18.90
2023-04-15T21:18:03.809Z,16.50
2023-04-15T21:20:36.788Z,17.50
2023-04-15T21:23:11.881Z,12.30
2023-04-15T21:25:46.161Z,12.50
2023-04-15T21:28:19.230Z,17.40
2023-04-15T21:30:52.226Z,14.60
2023-04-15T21:33:25.248Z,15.00
2023-04-15T21:35:59.639Z,15.50
2023-04-15T21:38:32.566Z,17.80
2023-04-15T21:41:09.698Z,14.00
2023-04-15T21:43:42.712Z,13.80
2023-04-15T21:46:23.174Z,13.20
2023-04-15T21:48:58.036Z,19.10
2023-04-15T21:51:31.839Z,18.30
2023-04-15T21:54:04.838Z,15.50
2023-04-15T21:56:38.732Z,15.30
2023-04-15T21:59:11.528Z,15.10
2023-04-15T22:01:44.238Z,16.40
2023-04-15T22:04:17.123Z,15.90
2023-04-15T22:06:53.162Z,12.00
2023-04-15T22:09:26.602Z,13.40
2023-04-15T22:12:01.195Z,15.60
2023-04-15T22:14:34.475Z,15.00
2023-04-15T22:17:07.317Z,15.30
2023-04-15T22:19:40.184Z,14.50
2023-04-15T22:22:13.565Z,14.10
2023-04-15T22:24:46.092Z,15.60
2023-04-15T22:27:20.330Z,13.00
2023-04-15T22:29:53.397Z,15.00
2023-04-15T22:32:26.420Z,11.50
2023-04-15T22:34:59.924Z,15.20
2023-04-15T22:37:32.758Z,13.90
2023-04-15T22:40:06.514Z,15.20
2023-04-15T22:42:40.066Z,13.20
2023-04-15T22:45:14.166Z,16.40
2023-04-15T22:47:46.999Z,13.70
2023-04-15T22:50:19.646Z,14.60
2023-04-15T22:52:53.156Z,13.60
2023-04-15T22:55:26.061Z,14.00
2023-04-15T22:57:58.799Z,13.80
2023-04-15T23:00:31.570Z,13.30
2023-04-15T23:03:04.475Z,12.20
2023-04-15T23:05:37.106Z,12.50
2023-04-15T23:08:10.161Z,18.20
2023-04-15T23:10:44.805Z,10.00
2023-04-15T23:13:17.484Z,10.20
2023-04-15T23:15:50.298Z,11.50
2023-04-15T23:18:23.572Z,11.10
2023-04-15T23:20:56.799Z,10.70
2023-04-15T23:23:29.717Z,13.10
2023-04-15T23:26:04.256Z,9.40
2023-04-15T23:28:37.457Z,12.90
2023-04-15T23:31:10.119Z,11.90
2023-04-15T23:33:42.823Z,10.80
2023-04-15T23:36:15.595Z,10.50
2023-04-15T23:38:49.383Z,9.30
2023-04-15T23:41:22.844Z,10.60
2023-04-15T23:43:56.198Z,9.80
2023-04-15T23:46:28.863Z,10.10
2023-04-15T23:49:01.708Z,15.40
2023-04-15T23:51:36.363Z,9.60
2023-04-15T23:54:09.430Z,11.10
2023-04-15T23:56:42.206Z,13.20
2023-04-15T23:59:15.227Z,10.30
